sensor_id;sensor_type;location;lat;lon;timestamp;P1;durP1;ratioP1;P2;durP2;ratioP2
6095;SDS011;25081;42.698;23.298;2024-03-08T00:01:29;2.90;;;2.10;;
6095;SDS011;25081;42.698;23.298;2024-03-08T00:03:38;3.65;;;2.12;;
6095;SDS011;25081;42.698;23.298;2024-03-08T00:05:47;2.72;;;2.15;;
6095;SDS011;25081;42.698;23.298;2024-03-08T00:07:56;2.72;;;2.00;;
6095;SDS011;25081;42.698;23.298;2024-03-08T00:10:06;3.45;;;2.83;;
6095;SDS011;25081;42.698;23.298;2024-03-08T00:12:15;2.52;;;2.00;;
6095;SDS011;25081;42.698;23.298;2024-03-08T00:14:24;5.05;;;2.47;;
6095;SDS011;25081;42.698;23.298;2024-03-08T00:16:33;3.50;;;2.42;;
6095;SDS011;25081;42.698;23.298;2024-03-08T00:18:42;3.35;;;2.40;;
6095;SDS011;25081;42.698;23.298;2024-03-08T00:20:50;3.17;;;2.10;;
6095;SDS011;25081;42.698;23.298;2024-03-08T00:22:59;3.27;;;2.40;;
6095;SDS011;25081;42.698;23.298;2024-03-08T00:25:09;3.58;;;2.55;;
6095;SDS011;25081;42.698;23.298;2024-03-08T00:27:19;3.40;;;2.80;;
6095;SDS011;25081;42.698;23.298;2024-03-08T00:29:28;2.95;;;2.40;;
6095;SDS011;25081;42.698;23.298;2024-03-08T00:31:37;3.85;;;3.35;;
6095;SDS011;25081;42.698;23.298;2024-03-08T00:33:45;3.80;;;3.25;;
6095;SDS011;25081;42.698;23.298;2024-03-08T00:35:54;5.80;;;4.40;;
6095;SDS011;25081;42.698;23.298;2024-03-08T00:38:03;3.77;;;3.37;;
6095;SDS011;25081;42.698;23.298;2024-03-08T00:40:12;5.30;;;3.70;;
6095;SDS011;25081;42.698;23.298;2024-03-08T00:42:21;5.28;;;4.00;;
6095;SDS011;25081;42.698;23.298;2024-03-08T00:44:30;8.68;;;5.60;;
6095;SDS011;25081;42.698;23.298;2024-03-08T00:46:39;6.67;;;6.03;;
6095;SDS011;25081;42.698;23.298;2024-03-08T00:48:48;8.00;;;6.53;;
6095;SDS011;25081;42.698;23.298;2024-03-08T00:50:57;6.08;;;5.47;;
6095;SDS011;25081;42.698;23.298;2024-03-08T00:53:06;5.65;;;4.30;;
6095;SDS011;25081;42.698;23.298;2024-03-08T00:55:15;6.30;;;4.70;;
6095;SDS011;25081;42.698;23.298;2024-03-08T00:57:24;6.50;;;4.62;;
6095;SDS011;25081;42.698;23.298;2024-03-08T00:59:33;4.97;;;3.95;;
6095;SDS011;25081;42.698;23.298;2024-03-08T01:01:41;6.20;;;4.00;;
6095;SDS011;25081;42.698;23.298;2024-03-08T01:03:50;4.95;;;3.75;;
6095;SDS011;25081;42.698;23.298;2024-03-08T01:05:59;6.60;;;4.28;;
6095;SDS011;25081;42.698;23.298;2024-03-08T01:08:08;4.65;;;3.00;;
6095;SDS011;25081;42.698;23.298;2024-03-08T01:10:17;3.00;;;2.70;;
6095;SDS011;25081;42.698;23.298;2024-03-08T01:12:26;4.17;;;3.30;;
6095;SDS011;25081;42.698;23.298;2024-03-08T01:14:34;4.20;;;3.80;;
6095;SDS011;25081;42.698;23.298;2024-03-08T01:16:43;5.50;;;4.30;;
6095;SDS011;25081;42.698;23.298;2024-03-08T01:18:52;5.83;;;4.03;;
6095;SDS011;25081;42.698;23.298;2024-03-08T01:21:01;5.00;;;4.08;;
6095;SDS011;25081;42.698;23.298;2024-03-08T01:23:10;5.40;;;4.47;;
6095;SDS011;25081;42.698;23.298;2024-03-08T01:25:19;6.37;;;3.67;;
6095;SDS011;25081;42.698;23.298;2024-03-08T01:27:28;6.95;;;3.50;;
6095;SDS011;25081;42.698;23.298;2024-03-08T01:29:37;3.55;;;2.83;;
6095;SDS011;25081;42.698;23.298;2024-03-08T01:31:46;4.30;;;2.95;;
6095;SDS011;25081;42.698;23.298;2024-03-08T01:33:55;4.53;;;3.67;;
6095;SDS011;25081;42.698;23.298;2024-03-08T01:36:04;6.03;;;3.55;;
6095;SDS011;25081;42.698;23.298;2024-03-08T01:38:13;4.42;;;4.03;;
6095;SDS011;25081;42.698;23.298;2024-03-08T01:40:21;5.35;;;4.40;;
6095;SDS011;25081;42.698;23.298;2024-03-08T01:42:30;4.33;;;3.05;;
6095;SDS011;25081;42.698;23.298;2024-03-08T01:44:39;6.05;;;3.40;;
6095;SDS011;25081;42.698;23.298;2024-03-08T01:46:47;3.37;;;2.72;;
6095;SDS011;25081;42.698;23.298;2024-03-08T01:48:56;3.70;;;2.80;;
6095;SDS011;25081;42.698;23.298;2024-03-08T01:51:05;3.47;;;2.83;;
6095;SDS011;25081;42.698;23.298;2024-03-08T01:53:14;4.05;;;3.42;;
6095;SDS011;25081;42.698;23.298;2024-03-08T01:55:23;4.22;;;3.25;;
6095;SDS011;25081;42.698;23.298;2024-03-08T01:57:31;3.98;;;3.17;;
6095;SDS011;25081;42.698;23.298;2024-03-08T01:59:40;4.10;;;3.62;;
6095;SDS011;25081;42.698;23.298;2024-03-08T02:01:49;4.62;;;3.80;;
6095;SDS011;25081;42.698;23.298;2024-03-08T02:03:58;4.78;;;3.55;;
6095;SDS011;25081;42.698;23.298;2024-03-08T02:06:07;2.95;;;2.60;;
6095;SDS011;25081;42.698;23.298;2024-03-08T02:08:16;3.87;;;3.15;;
6095;SDS011;25081;42.698;23.298;2024-03-08T02:10:25;3.42;;;3.10;;
6095;SDS011;25081;42.698;23.298;2024-03-08T02:12:33;3.98;;;3.08;;
6095;SDS011;25081;42.698;23.298;2024-03-08T02:14:42;4.55;;;3.35;;
6095;SDS011;25081;42.698;23.298;2024-03-08T02:16:51;3.40;;;2.85;;
6095;SDS011;25081;42.698;23.298;2024-03-08T02:18:59;4.53;;;2.65;;
6095;SDS011;25081;42.698;23.298;2024-03-08T02:21:08;3.17;;;2.33;;
6095;SDS011;25081;42.698;23.298;2024-03-08T02:23:17;4.08;;;2.62;;
6095;SDS011;25081;42.698;23.298;2024-03-08T02:25:27;5.05;;;1.87;;
6095;SDS011;25081;42.698;23.298;2024-03-08T02:27:35;2.95;;;2.25;;
6095;SDS011;25081;42.698;23.298;2024-03-08T02:29:44;3.00;;;2.40;;
6095;SDS011;25081;42.698;23.298;2024-03-08T02:31:53;2.75;;;1.70;;
6095;SDS011;25081;42.698;23.298;2024-03-08T02:34:02;2.00;;;1.77;;
6095;SDS011;25081;42.698;23.298;2024-03-08T02:36:11;3.05;;;1.75;;
6095;SDS011;25081;42.698;23.298;2024-03-08T02:38:20;2.20;;;1.50;;
6095;SDS011;25081;42.698;23.298;2024-03-08T02:40:29;5.30;;;1.67;;
6095;SDS011;25081;42.698;23.298;2024-03-08T02:42:38;1.92;;;1.30;;
6095;SDS011;25081;42.698;23.298;2024-03-08T02:44:47;3.02;;;1.60;;
6095;SDS011;25081;42.698;23.298;2024-03-08T02:46:55;2.55;;;1.70;;
6095;SDS011;25081;42.698;23.298;2024-03-08T02:49:04;2.05;;;1.40;;
6095;SDS011;25081;42.698;23.298;2024-03-08T02:51:13;1.80;;;1.50;;
6095;SDS011;25081;42.698;23.298;2024-03-08T02:53:22;2.30;;;1.67;;
6095;SDS011;25081;42.698;23.298;2024-03-08T02:55:31;1.70;;;1.52;;
6095;SDS011;25081;42.698;23.298;2024-03-08T02:57:40;1.60;;;1.30;;
6095;SDS011;25081;42.698;23.298;2024-03-08T02:59:49;4.10;;;2.60;;
6095;SDS011;25081;42.698;23.298;2024-03-08T03:01:58;4.55;;;2.98;;
6095;SDS011;25081;42.698;23.298;2024-03-08T03:04:07;3.12;;;1.70;;
6095;SDS011;25081;42.698;23.298;2024-03-08T03:06:16;2.17;;;1.65;;
6095;SDS011;25081;42.698;23.298;2024-03-08T03:08:25;1.87;;;1.47;;
6095;SDS011;25081;42.698;23.298;2024-03-08T03:10:33;2.33;;;1.80;;
6095;SDS011;25081;42.698;23.298;2024-03-08T03:12:42;3.10;;;1.70;;
6095;SDS011;25081;42.698;23.298;2024-03-08T03:14:51;2.10;;;1.50;;
6095;SDS011;25081;42.698;23.298;2024-03-08T03:17:00;2.35;;;1.50;;
6095;SDS011;25081;42.698;23.298;2024-03-08T03:19:09;3.65;;;1.60;;
6095;SDS011;25081;42.698;23.298;2024-03-08T03:21:18;2.45;;;1.50;;
6095;SDS011;25081;42.698;23.298;2024-03-08T03:23:27;2.08;;;1.80;;
6095;SDS011;25081;42.698;23.298;2024-03-08T03:25:36;2.87;;;1.42;;
6095;SDS011;25081;42.698;23.298;2024-03-08T03:27:45;2.52;;;1.57;;
6095;SDS011;25081;42.698;23.298;2024-03-08T03:29:53;1.82;;;1.50;;
6095;SDS011;25081;42.698;23.298;2024-03-08T03:32:02;1.87;;;1.30;;
6095;SDS011;25081;42.698;23.298;2024-03-08T03:34:11;1.82;;;1.35;;
6095;SDS011;25081;42.698;23.298;2024-03-08T03:36:20;2.00;;;1.10;;
6095;SDS011;25081;42.698;23.298;2024-03-08T03:38:29;3.55;;;1.30;;
6095;SDS011;25081;42.698;23.298;2024-03-08T03:40:38;2.98;;;1.50;;
6095;SDS011;25081;42.698;23.298;2024-03-08T03:42:46;2.90;;;1.70;;
6095;SDS011;25081;42.698;23.298;2024-03-08T03:44:55;2.58;;;1.57;;
6095;SDS011;25081;42.698;23.298;2024-03-08T03:47:04;2.52;;;1.50;;
6095;SDS011;25081;42.698;23.298;2024-03-08T03:49:13;1.90;;;1.45;;
6095;SDS011;25081;42.698;23.298;2024-03-08T03:51:22;2.35;;;1.30;;
6095;SDS011;25081;42.698;23.298;2024-03-08T03:53:30;2.10;;;1.77;;
6095;SDS011;25081;42.698;23.298;2024-03-08T03:55:39;3.22;;;1.87;;
6095;SDS011;25081;42.698;23.298;2024-03-08T03:57:48;2.17;;;1.70;;
6095;SDS011;25081;42.698;23.298;2024-03-08T03:59:57;2.12;;;1.55;;
6095;SDS011;25081;42.698;23.298;2024-03-08T04:02:05;1.92;;;1.40;;
6095;SDS011;25081;42.698;23.298;2024-03-08T04:04:14;3.92;;;2.50;;
6095;SDS011;25081;42.698;23.298;2024-03-08T04:06:23;18.37;;;9.78;;
6095;SDS011;25081;42.698;23.298;2024-03-08T04:08:32;2.98;;;2.00;;
6095;SDS011;25081;42.698;23.298;2024-03-08T04:10:41;2.55;;;1.80;;
6095;SDS011;25081;42.698;23.298;2024-03-08T04:12:49;3.52;;;2.58;;
6095;SDS011;25081;42.698;23.298;2024-03-08T04:14:58;5.30;;;3.20;;
6095;SDS011;25081;42.698;23.298;2024-03-08T04:17:07;4.55;;;1.60;;
6095;SDS011;25081;42.698;23.298;2024-03-08T04:19:16;2.60;;;1.80;;
6095;SDS011;25081;42.698;23.298;2024-03-08T04:21:24;3.58;;;2.00;;
6095;SDS011;25081;42.698;23.298;2024-03-08T04:23:34;2.62;;;1.90;;
6095;SDS011;25081;42.698;23.298;2024-03-08T04:25:43;2.40;;;1.62;;
6095;SDS011;25081;42.698;23.298;2024-03-08T04:27:51;2.95;;;2.00;;
6095;SDS011;25081;42.698;23.298;2024-03-08T04:30:00;4.00;;;2.25;;
6095;SDS011;25081;42.698;23.298;2024-03-08T04:32:09;3.45;;;2.20;;
6095;SDS011;25081;42.698;23.298;2024-03-08T04:34:18;2.72;;;2.20;;
6095;SDS011;25081;42.698;23.298;2024-03-08T04:36:26;2.75;;;2.25;;
6095;SDS011;25081;42.698;23.298;2024-03-08T04:38:35;3.67;;;2.42;;
6095;SDS011;25081;42.698;23.298;2024-03-08T04:40:44;4.97;;;2.45;;
6095;SDS011;25081;42.698;23.298;2024-03-08T04:42:53;3.45;;;3.10;;
6095;SDS011;25081;42.698;23.298;2024-03-08T04:45:01;5.70;;;3.15;;
6095;SDS011;25081;42.698;23.298;2024-03-08T04:47:11;5.17;;;2.67;;
6095;SDS011;25081;42.698;23.298;2024-03-08T04:49:19;3.80;;;3.00;;
6095;SDS011;25081;42.698;23.298;2024-03-08T04:51:29;6.70;;;3.22;;
6095;SDS011;25081;42.698;23.298;2024-03-08T04:53:37;4.55;;;3.00;;
6095;SDS011;25081;42.698;23.298;2024-03-08T04:55:46;5.05;;;3.30;;
6095;SDS011;25081;42.698;23.298;2024-03-08T04:57:55;4.47;;;3.20;;
6095;SDS011;25081;42.698;23.298;2024-03-08T05:00:05;4.65;;;3.47;;
6095;SDS011;25081;42.698;23.298;2024-03-08T05:02:15;5.20;;;3.77;;
6095;SDS011;25081;42.698;23.298;2024-03-08T05:04:24;5.12;;;3.75;;
6095;SDS011;25081;42.698;23.298;2024-03-08T05:06:33;5.95;;;4.17;;
6095;SDS011;25081;42.698;23.298;2024-03-08T05:08:42;7.55;;;4.80;;
6095;SDS011;25081;42.698;23.298;2024-03-08T05:10:50;6.70;;;4.20;;
6095;SDS011;25081;42.698;23.298;2024-03-08T05:12:59;8.25;;;5.58;;
6095;SDS011;25081;42.698;23.298;2024-03-08T05:15:09;5.45;;;3.85;;
6095;SDS011;25081;42.698;23.298;2024-03-08T05:17:17;7.05;;;4.55;;
6095;SDS011;25081;42.698;23.298;2024-03-08T05:19:26;6.37;;;4.30;;
6095;SDS011;25081;42.698;23.298;2024-03-08T05:21:35;8.20;;;4.30;;
6095;SDS011;25081;42.698;23.298;2024-03-08T05:23:43;5.33;;;4.30;;
6095;SDS011;25081;42.698;23.298;2024-03-08T05:25:52;4.70;;;4.00;;
6095;SDS011;25081;42.698;23.298;2024-03-08T05:28:01;5.10;;;3.90;;
6095;SDS011;25081;42.698;23.298;2024-03-08T05:30:10;7.33;;;4.45;;
6095;SDS011;25081;42.698;23.298;2024-03-08T05:32:19;6.75;;;4.50;;
6095;SDS011;25081;42.698;23.298;2024-03-08T05:34:28;8.73;;;5.70;;
6095;SDS011;25081;42.698;23.298;2024-03-08T05:36:37;8.13;;;5.83;;
6095;SDS011;25081;42.698;23.298;2024-03-08T05:38:45;8.70;;;5.33;;
6095;SDS011;25081;42.698;23.298;2024-03-08T05:40:54;6.42;;;4.37;;
6095;SDS011;25081;42.698;23.298;2024-03-08T05:43:03;6.20;;;4.40;;
6095;SDS011;25081;42.698;23.298;2024-03-08T05:45:13;5.95;;;4.22;;
6095;SDS011;25081;42.698;23.298;2024-03-08T05:47:21;8.10;;;5.17;;
6095;SDS011;25081;42.698;23.298;2024-03-08T05:49:30;8.18;;;5.15;;
6095;SDS011;25081;42.698;23.298;2024-03-08T05:51:39;7.92;;;5.67;;
6095;SDS011;25081;42.698;23.298;2024-03-08T05:53:48;9.13;;;5.92;;
6095;SDS011;25081;42.698;23.298;2024-03-08T05:55:57;7.10;;;4.55;;
6095;SDS011;25081;42.698;23.298;2024-03-08T05:58:06;9.35;;;5.53;;
6095;SDS011;25081;42.698;23.298;2024-03-08T06:00:15;8.20;;;5.25;;
6095;SDS011;25081;42.698;23.298;2024-03-08T06:02:25;9.48;;;6.37;;
6095;SDS011;25081;42.698;23.298;2024-03-08T06:04:34;10.72;;;6.20;;
6095;SDS011;25081;42.698;23.298;2024-03-08T06:06:42;8.58;;;4.90;;
6095;SDS011;25081;42.698;23.298;2024-03-08T06:08:52;8.60;;;6.53;;
6095;SDS011;25081;42.698;23.298;2024-03-08T06:11:00;7.33;;;4.72;;
6095;SDS011;25081;42.698;23.298;2024-03-08T06:13:09;6.70;;;4.53;;
6095;SDS011;25081;42.698;23.298;2024-03-08T06:15:18;8.10;;;5.00;;
6095;SDS011;25081;42.698;23.298;2024-03-08T06:17:27;6.53;;;4.50;;
6095;SDS011;25081;42.698;23.298;2024-03-08T06:19:36;9.05;;;5.00;;
6095;SDS011;25081;42.698;23.298;2024-03-08T06:21:45;7.80;;;4.53;;
6095;SDS011;25081;42.698;23.298;2024-03-08T06:23:54;6.90;;;4.78;;
6095;SDS011;25081;42.698;23.298;2024-03-08T06:26:02;5.85;;;4.35;;
6095;SDS011;25081;42.698;23.298;2024-03-08T06:28:12;6.70;;;4.78;;
6095;SDS011;25081;42.698;23.298;2024-03-08T06:30:21;7.22;;;4.60;;
6095;SDS011;25081;42.698;23.298;2024-03-08T06:32:29;9.25;;;5.50;;
6095;SDS011;25081;42.698;23.298;2024-03-08T06:34:39;7.28;;;4.75;;
6095;SDS011;25081;42.698;23.298;2024-03-08T06:36:47;7.40;;;4.62;;
6095;SDS011;25081;42.698;23.298;2024-03-08T06:38:56;8.93;;;5.40;;
6095;SDS011;25081;42.698;23.298;2024-03-08T06:41:05;7.65;;;5.30;;
6095;SDS011;25081;42.698;23.298;2024-03-08T06:43:14;7.65;;;4.30;;
6095;SDS011;25081;42.698;23.298;2024-03-08T06:45:22;7.92;;;5.05;;
6095;SDS011;25081;42.698;23.298;2024-03-08T06:47:31;7.87;;;5.35;;
6095;SDS011;25081;42.698;23.298;2024-03-08T06:49:40;11.33;;;6.28;;
6095;SDS011;25081;42.698;23.298;2024-03-08T06:51:49;7.28;;;5.10;;
6095;SDS011;25081;42.698;23.298;2024-03-08T06:53:57;7.75;;;5.00;;
6095;SDS011;25081;42.698;23.298;2024-03-08T06:56:06;7.00;;;5.20;;
6095;SDS011;25081;42.698;23.298;2024-03-08T06:58:15;8.05;;;5.67;;
6095;SDS011;25081;42.698;23.298;2024-03-08T07:00:23;11.03;;;5.90;;
6095;SDS011;25081;42.698;23.298;2024-03-08T07:02:32;6.45;;;4.62;;
6095;SDS011;25081;42.698;23.298;2024-03-08T07:04:41;7.83;;;5.72;;
6095;SDS011;25081;42.698;23.298;2024-03-08T07:06:50;8.50;;;5.37;;
6095;SDS011;25081;42.698;23.298;2024-03-08T07:08:58;8.10;;;6.10;;
6095;SDS011;25081;42.698;23.298;2024-03-08T07:11:07;10.48;;;6.33;;
6095;SDS011;25081;42.698;23.298;2024-03-08T07:13:16;9.80;;;7.60;;
6095;SDS011;25081;42.698;23.298;2024-03-08T07:15:25;8.88;;;6.72;;
6095;SDS011;25081;42.698;23.298;2024-03-08T07:17:34;10.18;;;5.85;;
6095;SDS011;25081;42.698;23.298;2024-03-08T07:19:42;13.00;;;8.15;;
6095;SDS011;25081;42.698;23.298;2024-03-08T07:21:51;8.33;;;6.30;;
6095;SDS011;25081;42.698;23.298;2024-03-08T07:24:00;9.73;;;6.03;;
6095;SDS011;25081;42.698;23.298;2024-03-08T07:26:15;9.48;;;5.85;;
6095;SDS011;25081;42.698;23.298;2024-03-08T07:28:25;9.65;;;6.28;;
6095;SDS011;25081;42.698;23.298;2024-03-08T07:30:34;10.60;;;6.28;;
6095;SDS011;25081;42.698;23.298;2024-03-08T07:33:01;9.65;;;5.95;;
6095;SDS011;25081;42.698;23.298;2024-03-08T07:35:10;8.75;;;5.95;;
6095;SDS011;25081;42.698;23.298;2024-03-08T07:37:18;11.20;;;6.28;;
6095;SDS011;25081;42.698;23.298;2024-03-08T07:39:27;9.78;;;6.17;;
6095;SDS011;25081;42.698;23.298;2024-03-08T07:41:36;10.50;;;6.67;;
6095;SDS011;25081;42.698;23.298;2024-03-08T07:43:45;7.65;;;5.67;;
6095;SDS011;25081;42.698;23.298;2024-03-08T07:45:53;11.20;;;6.85;;
6095;SDS011;25081;42.698;23.298;2024-03-08T07:48:02;12.03;;;8.20;;
6095;SDS011;25081;42.698;23.298;2024-03-08T07:50:11;12.03;;;7.28;;
6095;SDS011;25081;42.698;23.298;2024-03-08T07:52:20;8.80;;;6.03;;
6095;SDS011;25081;42.698;23.298;2024-03-08T07:54:29;9.35;;;6.80;;
6095;SDS011;25081;42.698;23.298;2024-03-08T07:56:38;8.48;;;6.00;;
6095;SDS011;25081;42.698;23.298;2024-03-08T07:58:47;13.32;;;7.65;;
6095;SDS011;25081;42.698;23.298;2024-03-08T08:00:55;10.70;;;7.25;;
6095;SDS011;25081;42.698;23.298;2024-03-08T08:03:05;12.30;;;7.67;;
6095;SDS011;25081;42.698;23.298;2024-03-08T08:05:13;10.63;;;6.75;;
6095;SDS011;25081;42.698;23.298;2024-03-08T08:07:22;11.65;;;7.78;;
6095;SDS011;25081;42.698;23.298;2024-03-08T08:09:31;11.33;;;7.20;;
6095;SDS011;25081;42.698;23.298;2024-03-08T08:11:41;11.63;;;7.62;;
6095;SDS011;25081;42.698;23.298;2024-03-08T08:13:50;9.93;;;6.85;;
6095;SDS011;25081;42.698;23.298;2024-03-08T08:15:58;8.90;;;6.10;;
6095;SDS011;25081;42.698;23.298;2024-03-08T08:18:07;11.03;;;7.25;;
6095;SDS011;25081;42.698;23.298;2024-03-08T08:20:16;9.50;;;6.67;;
6095;SDS011;25081;42.698;23.298;2024-03-08T08:22:25;9.70;;;6.40;;
6095;SDS011;25081;42.698;23.298;2024-03-08T08:24:33;8.90;;;6.10;;
6095;SDS011;25081;42.698;23.298;2024-03-08T08:26:43;10.15;;;6.47;;
6095;SDS011;25081;42.698;23.298;2024-03-08T08:28:52;11.45;;;6.65;;
6095;SDS011;25081;42.698;23.298;2024-03-08T08:31:01;10.60;;;6.30;;
6095;SDS011;25081;42.698;23.298;2024-03-08T08:33:09;7.75;;;4.45;;
6095;SDS011;25081;42.698;23.298;2024-03-08T08:35:18;6.85;;;4.67;;
6095;SDS011;25081;42.698;23.298;2024-03-08T08:37:27;5.60;;;4.70;;
6095;SDS011;25081;42.698;23.298;2024-03-08T08:39:36;6.27;;;4.57;;
6095;SDS011;25081;42.698;23.298;2024-03-08T08:41:44;5.77;;;4.43;;
6095;SDS011;25081;42.698;23.298;2024-03-08T08:43:53;5.50;;;4.20;;
6095;SDS011;25081;42.698;23.298;2024-03-08T08:46:02;5.47;;;4.40;;
6095;SDS011;25081;42.698;23.298;2024-03-08T08:48:11;8.63;;;3.50;;
6095;SDS011;25081;42.698;23.298;2024-03-08T08:50:19;6.20;;;3.70;;
6095;SDS011;25081;42.698;23.298;2024-03-08T08:52:30;6.10;;;3.80;;
6095;SDS011;25081;42.698;23.298;2024-03-08T08:54:39;5.57;;;3.43;;
6095;SDS011;25081;42.698;23.298;2024-03-08T08:56:47;4.90;;;3.50;;
6095;SDS011;25081;42.698;23.298;2024-03-08T08:58:56;4.77;;;3.30;;
6095;SDS011;25081;42.698;23.298;2024-03-08T09:01:05;6.20;;;3.90;;
6095;SDS011;25081;42.698;23.298;2024-03-08T09:03:14;6.57;;;4.23;;
6095;SDS011;25081;42.698;23.298;2024-03-08T09:05:23;4.67;;;3.27;;
6095;SDS011;25081;42.698;23.298;2024-03-08T09:07:32;5.27;;;3.53;;
6095;SDS011;25081;42.698;23.298;2024-03-08T09:09:40;5.10;;;3.97;;
6095;SDS011;25081;42.698;23.298;2024-03-08T09:11:50;3.93;;;3.00;;
6095;SDS011;25081;42.698;23.298;2024-03-08T09:13:59;4.87;;;2.80;;
6095;SDS011;25081;42.698;23.298;2024-03-08T09:16:08;6.00;;;3.50;;
6095;SDS011;25081;42.698;23.298;2024-03-08T09:18:16;5.83;;;3.50;;
6095;SDS011;25081;42.698;23.298;2024-03-08T09:20:25;3.67;;;3.20;;
6095;SDS011;25081;42.698;23.298;2024-03-08T09:22:34;3.30;;;2.63;;
6095;SDS011;25081;42.698;23.298;2024-03-08T09:24:42;3.83;;;3.23;;
6095;SDS011;25081;42.698;23.298;2024-03-08T09:26:51;4.30;;;3.13;;
6095;SDS011;25081;42.698;23.298;2024-03-08T09:29:00;3.93;;;3.20;;
6095;SDS011;25081;42.698;23.298;2024-03-08T09:31:09;3.97;;;2.70;;
6095;SDS011;25081;42.698;23.298;2024-03-08T09:33:18;4.43;;;3.60;;
6095;SDS011;25081;42.698;23.298;2024-03-08T09:35:27;6.03;;;3.80;;
6095;SDS011;25081;42.698;23.298;2024-03-08T09:37:35;4.77;;;3.83;;
6095;SDS011;25081;42.698;23.298;2024-03-08T09:39:45;5.57;;;4.20;;
6095;SDS011;25081;42.698;23.298;2024-03-08T09:41:53;6.77;;;3.70;;
6095;SDS011;25081;42.698;23.298;2024-03-08T09:44:02;5.40;;;3.37;;
6095;SDS011;25081;42.698;23.298;2024-03-08T09:46:11;4.27;;;3.37;;
6095;SDS011;25081;42.698;23.298;2024-03-08T09:48:20;4.37;;;3.20;;
6095;SDS011;25081;42.698;23.298;2024-03-08T09:50:29;5.70;;;3.50;;
6095;SDS011;25081;42.698;23.298;2024-03-08T09:52:38;3.73;;;2.90;;
6095;SDS011;25081;42.698;23.298;2024-03-08T09:54:47;5.00;;;3.20;;
6095;SDS011;25081;42.698;23.298;2024-03-08T09:56:56;4.20;;;2.70;;
6095;SDS011;25081;42.698;23.298;2024-03-08T09:59:05;4.73;;;3.20;;
6095;SDS011;25081;42.698;23.298;2024-03-08T10:01:22;4.33;;;2.83;;
6095;SDS011;25081;42.698;23.298;2024-03-08T10:03:30;4.90;;;2.73;;
6095;SDS011;25081;42.698;23.298;2024-03-08T10:05:39;3.30;;;3.00;;
6095;SDS011;25081;42.698;23.298;2024-03-08T10:07:48;3.50;;;2.67;;
6095;SDS011;25081;42.698;23.298;2024-03-08T10:09:57;3.70;;;2.80;;
6095;SDS011;25081;42.698;23.298;2024-03-08T10:12:06;6.80;;;3.13;;
6095;SDS011;25081;42.698;23.298;2024-03-08T10:14:15;4.37;;;2.90;;
6095;SDS011;25081;42.698;23.298;2024-03-08T10:16:25;3.20;;;2.80;;
6095;SDS011;25081;42.698;23.298;2024-03-08T10:18:34;3.60;;;2.67;;
6095;SDS011;25081;42.698;23.298;2024-03-08T10:20:42;8.93;;;3.17;;
6095;SDS011;25081;42.698;23.298;2024-03-08T10:22:51;4.30;;;3.03;;
6095;SDS011;25081;42.698;23.298;2024-03-08T10:25:00;2.77;;;2.00;;
6095;SDS011;25081;42.698;23.298;2024-03-08T10:27:09;2.97;;;2.27;;
6095;SDS011;25081;42.698;23.298;2024-03-08T10:29:19;3.80;;;2.80;;
6095;SDS011;25081;42.698;23.298;2024-03-08T10:31:28;3.97;;;2.93;;
6095;SDS011;25081;42.698;23.298;2024-03-08T10:33:36;3.50;;;2.63;;
6095;SDS011;25081;42.698;23.298;2024-03-08T10:35:45;3.70;;;2.90;;
6095;SDS011;25081;42.698;23.298;2024-03-08T10:37:54;4.63;;;2.80;;
6095;SDS011;25081;42.698;23.298;2024-03-08T10:40:05;3.33;;;2.30;;
6095;SDS011;25081;42.698;23.298;2024-03-08T10:42:16;3.27;;;2.40;;
6095;SDS011;25081;42.698;23.298;2024-03-08T10:46:56;2.90;;;2.17;;
6095;SDS011;25081;42.698;23.298;2024-03-08T10:49:07;4.00;;;2.60;;
6095;SDS011;25081;42.698;23.298;2024-03-08T10:51:15;4.53;;;2.73;;
6095;SDS011;25081;42.698;23.298;2024-03-08T10:53:24;3.37;;;2.50;;
6095;SDS011;25081;42.698;23.298;2024-03-08T10:55:33;3.83;;;2.90;;
6095;SDS011;25081;42.698;23.298;2024-03-08T10:57:41;3.47;;;2.70;;
6095;SDS011;25081;42.698;23.298;2024-03-08T10:59:50;4.00;;;2.83;;
6095;SDS011;25081;42.698;23.298;2024-03-08T11:01:59;3.50;;;2.63;;
6095;SDS011;25081;42.698;23.298;2024-03-08T11:04:07;4.00;;;2.73;;
6095;SDS011;25081;42.698;23.298;2024-03-08T11:06:17;4.40;;;2.50;;
6095;SDS011;25081;42.698;23.298;2024-03-08T11:08:25;3.23;;;2.50;;
6095;SDS011;25081;42.698;23.298;2024-03-08T11:10:34;3.70;;;2.80;;
6095;SDS011;25081;42.698;23.298;2024-03-08T11:12:43;2.73;;;2.37;;
6095;SDS011;25081;42.698;23.298;2024-03-08T11:14:52;6.93;;;2.80;;
6095;SDS011;25081;42.698;23.298;2024-03-08T11:17:00;4.70;;;3.10;;
6095;SDS011;25081;42.698;23.298;2024-03-08T11:19:25;3.97;;;3.07;;
6095;SDS011;25081;42.698;23.298;2024-03-08T11:21:34;4.77;;;2.53;;
6095;SDS011;25081;42.698;23.298;2024-03-08T11:23:43;3.10;;;2.80;;
6095;SDS011;25081;42.698;23.298;2024-03-08T11:25:52;2.80;;;2.20;;
6095;SDS011;25081;42.698;23.298;2024-03-08T11:28:08;3.20;;;2.70;;
6095;SDS011;25081;42.698;23.298;2024-03-08T11:30:17;4.17;;;3.30;;
6095;SDS011;25081;42.698;23.298;2024-03-08T11:32:27;5.20;;;3.60;;
6095;SDS011;25081;42.698;23.298;2024-03-08T11:34:35;5.17;;;2.90;;
6095;SDS011;25081;42.698;23.298;2024-03-08T11:36:44;3.23;;;2.77;;
6095;SDS011;25081;42.698;23.298;2024-03-08T11:38:53;5.67;;;2.53;;
6095;SDS011;25081;42.698;23.298;2024-03-08T11:41:02;8.17;;;2.80;;
6095;SDS011;25081;42.698;23.298;2024-03-08T11:43:11;4.67;;;2.87;;
6095;SDS011;25081;42.698;23.298;2024-03-08T11:45:20;3.23;;;2.17;;
6095;SDS011;25081;42.698;23.298;2024-03-08T11:47:29;3.40;;;2.13;;
6095;SDS011;25081;42.698;23.298;2024-03-08T11:49:37;3.87;;;2.77;;
6095;SDS011;25081;42.698;23.298;2024-03-08T11:51:46;3.20;;;2.37;;
6095;SDS011;25081;42.698;23.298;2024-03-08T11:53:55;4.63;;;2.40;;
6095;SDS011;25081;42.698;23.298;2024-03-08T11:56:08;3.53;;;2.10;;
6095;SDS011;25081;42.698;23.298;2024-03-08T11:58:16;3.13;;;1.90;;
6095;SDS011;25081;42.698;23.298;2024-03-08T12:00:25;3.17;;;2.30;;
6095;SDS011;25081;42.698;23.298;2024-03-08T12:02:34;4.00;;;2.37;;
6095;SDS011;25081;42.698;23.298;2024-03-08T12:04:43;2.80;;;2.15;;
6095;SDS011;25081;42.698;23.298;2024-03-08T12:06:51;3.47;;;2.10;;
6095;SDS011;25081;42.698;23.298;2024-03-08T12:09:00;3.87;;;2.12;;
6095;SDS011;25081;42.698;23.298;2024-03-08T12:11:09;2.70;;;2.00;;
6095;SDS011;25081;42.698;23.298;2024-03-08T12:13:18;3.93;;;2.20;;
6095;SDS011;25081;42.698;23.298;2024-03-08T12:15:27;2.40;;;1.73;;
6095;SDS011;25081;42.698;23.298;2024-03-08T12:17:35;2.80;;;2.37;;
6095;SDS011;25081;42.698;23.298;2024-03-08T12:19:46;3.30;;;2.33;;
6095;SDS011;25081;42.698;23.298;2024-03-08T12:21:55;4.17;;;2.27;;
6095;SDS011;25081;42.698;23.298;2024-03-08T12:24:05;3.20;;;2.50;;
6095;SDS011;25081;42.698;23.298;2024-03-08T12:26:15;4.20;;;2.50;;
6095;SDS011;25081;42.698;23.298;2024-03-08T12:28:24;3.60;;;2.90;;
6095;SDS011;25081;42.698;23.298;2024-03-08T12:30:32;3.20;;;2.27;;
6095;SDS011;25081;42.698;23.298;2024-03-08T12:32:46;3.37;;;2.50;;
6095;SDS011;25081;42.698;23.298;2024-03-08T12:34:56;3.62;;;2.35;;
6095;SDS011;25081;42.698;23.298;2024-03-08T12:37:05;5.70;;;2.70;;
6095;SDS011;25081;42.698;23.298;2024-03-08T12:39:14;3.33;;;2.03;;
6095;SDS011;25081;42.698;23.298;2024-03-08T12:41:24;3.30;;;2.25;;
6095;SDS011;25081;42.698;23.298;2024-03-08T12:43:33;6.15;;;2.90;;
6095;SDS011;25081;42.698;23.298;2024-03-08T12:45:42;2.37;;;1.85;;
6095;SDS011;25081;42.698;23.298;2024-03-08T12:47:50;3.80;;;3.05;;
6095;SDS011;25081;42.698;23.298;2024-03-08T12:49:59;3.10;;;1.87;;
6095;SDS011;25081;42.698;23.298;2024-03-08T12:52:09;4.87;;;3.52;;
6095;SDS011;25081;42.698;23.298;2024-03-08T12:54:17;3.90;;;2.80;;
6095;SDS011;25081;42.698;23.298;2024-03-08T12:56:29;4.87;;;1.77;;
6095;SDS011;25081;42.698;23.298;2024-03-08T12:58:38;3.40;;;2.12;;
6095;SDS011;25081;42.698;23.298;2024-03-08T13:00:46;3.00;;;2.40;;